Time;durP1;ratioP1;P1;durP2;ratioP2;P2;SDS_P1;SDS_P2;PMS_P1;PMS_P2;Temp;Humidity;BMP_temperature;BMP_pressure;BME280_temperature;BME280_humidity;BME280_pressure;Samples;Min_cycle;Max_cycle;Signal;HPM_P1;HPM_P2
2021/10/13 00:02:09;;;;;;;7.18;0.95;;;6.80;99.90;;;;;;5078634;28;20064;-69
2021/10/13 00:04:35;;;;;;;5.75;1.17;;;6.80;99.90;;;;;;5064601;28;20089;-69
2021/10/13 00:07:01;;;;;;;10.13;1.00;;;6.90;99.90;;;;;;5081782;28;20041;-69
2021/10/13 00:09:27;;;;;;;13.07;1.33;;;6.90;99.90;;;;;;5061214;28;20498;-69
2021/10/13 00:11:52;;;;;;;7.88;1.02;;;6.90;99.90;;;;;;5066866;28;20032;-70
2021/10/13 00:14:19;;;;;;;6.60;1.10;;;7.00;99.90;;;;;;5056457;28;20040;-70
2021/10/13 00:16:52;;;;;;;9.10;1.27;;;7.10;99.90;;;;;;5078130;28;20040;-70
2021/10/13 00:19:20;;;;;;;7.85;1.02;;;7.00;99.90;;;;;;5060012;28;20041;-70
2021/10/13 00:21:46;;;;;;;6.05;1.20;;;7.10;99.90;;;;;;5086072;28;20083;-70
2021/10/13 00:24:12;;;;;;;11.95;1.40;;;7.10;99.90;;;;;;5062970;28;20078;-69
2021/10/13 00:26:38;;;;;;;7.82;1.30;;;7.30;99.90;;;;;;5061072;28;20040;-69
2021/10/13 00:29:03;;;;;;;5.90;0.98;;;7.30;99.90;;;;;;5058287;28;20400;-69
2021/10/13 00:31:29;;;;;;;5.15;1.13;;;7.40;99.90;;;;;;5068372;28;20431;-69
2021/10/13 00:33:55;;;;;;;5.53;0.85;;;7.40;99.90;;;;;;5060644;28;20035;-69
2021/10/13 00:36:21;;;;;;;7.40;0.90;;;7.60;99.90;;;;;;5082762;28;20492;-69
2021/10/13 00:38:46;;;;;;;5.82;1.00;;;7.70;99.90;;;;;;5086550;28;20135;-69
2021/10/13 00:41:12;;;;;;;6.40;1.33;;;7.70;99.90;;;;;;5067991;28;20408;-69
2021/10/13 00:43:38;;;;;;;7.13;1.20;;;7.80;99.90;;;;;;5083690;28;20365;-69
2021/10/13 00:46:05;;;;;;;5.72;1.10;;;7.80;99.90;;;;;;5075167;28;20105;-69
2021/10/13 00:48:30;;;;;;;13.38;1.50;;;7.80;99.90;;;;;;5061979;28;20111;-69
2021/10/13 00:50:56;;;;;;;7.43;1.10;;;7.80;99.90;;;;;;5056694;28;20154;-69
2021/10/13 00:53:23;;;;;;;9.35;1.05;;;7.80;99.90;;;;;;5079279;28;20411;-69
2021/10/13 00:55:49;;;;;;;5.68;1.10;;;7.80;99.90;;;;;;5059554;28;20039;-69
2021/10/13 00:58:15;;;;;;;8.95;1.30;;;7.80;99.90;;;;;;5060519;28;20040;-69
2021/10/13 01:00:44;;;;;;;5.95;0.90;;;7.70;99.90;;;;;;5079179;28;20045;-69
2021/10/13 01:03:16;;;;;;;5.32;0.90;;;7.80;99.90;;;;;;5065449;28;20035;-69
2021/10/13 01:05:54;;;;;;;4.38;1.35;;;7.70;99.90;;;;;;5085010;28;20036;-69
2021/10/13 01:08:38;;;;;;;4.63;1.00;;;7.70;99.90;;;;;;5087604;28;20472;-69
2021/10/13 01:11:13;;;;;;;3.83;0.98;;;7.70;99.90;;;;;;5054973;28;20040;-69
2021/10/13 01:14:04;;;;;;;7.65;1.20;;;7.70;99.90;;;;;;5063541;28;20102;-69
2021/10/13 01:16:35;;;;;;;4.72;0.98;;;7.70;99.90;;;;;;5055996;28;20123;-69
2021/10/13 01:19:11;;;;;;;7.22;0.95;;;7.70;99.90;;;;;;5057944;28;20548;-69
2021/10/13 01:21:51;;;;;;;6.00;0.90;;;7.70;99.90;;;;;;5058205;28;20044;-69
2021/10/13 01:24:41;;;;;;;7.93;1.23;;;7.70;99.90;;;;;;5093058;28;20055;-69
2021/10/13 01:27:44;;;;;;;4.82;1.10;;;7.60;99.90;;;;;;5060560;28;20047;-69
2021/10/13 01:30:11;;;;;;;6.60;1.05;;;7.60;99.90;;;;;;5066477;28;20032;-69
2021/10/13 01:32:39;;;;;;;4.15;0.70;;;7.60;99.90;;;;;;5046047;28;20109;-69
2021/10/13 01:35:06;;;;;;;6.72;0.75;;;7.60;99.90;;;;;;5060629;28;20119;-69
2021/10/13 01:37:48;;;;;;;2.70;0.60;;;7.60;99.90;;;;;;5054284;28;20477;-69
2021/10/13 01:40:17;;;;;;;8.38;0.82;;;7.60;99.90;;;;;;5091194;28;20109;-69
2021/10/13 01:42:47;;;;;;;4.85;1.02;;;7.50;99.90;;;;;;5038597;28;20048;-69
2021/10/13 01:45:15;;;;;;;6.90;1.20;;;7.60;99.90;;;;;;5098075;28;20136;-69
2021/10/13 01:47:45;;;;;;;6.57;0.90;;;7.60;99.90;;;;;;5077316;28;20202;-69
2021/10/13 01:50:13;;;;;;;8.00;0.93;;;7.70;99.90;;;;;;5057959;28;20091;-69
2021/10/13 01:52:40;;;;;;;5.10;0.88;;;7.70;99.90;;;;;;5060177;28;20048;-69
2021/10/13 01:55:07;;;;;;;6.57;1.05;;;7.80;99.90;;;;;;5078120;28;20048;-69
2021/10/13 01:57:35;;;;;;;7.28;1.13;;;7.80;99.90;;;;;;5092190;28;20056;-68
2021/10/13 02:00:08;;;;;;;4.95;0.85;;;7.70;99.90;;;;;;5069621;28;20058;-68
2021/10/13 02:02:36;;;;;;;7.38;1.20;;;7.70;99.90;;;;;;5059302;28;20344;-69
2021/10/13 02:05:05;;;;;;;5.53;1.10;;;7.60;99.90;;;;;;5088253;28;20569;-69
2021/10/13 02:07:32;;;;;;;9.02;1.48;;;7.70;99.90;;;;;;5077606;28;20093;-69
2021/10/13 02:10:02;;;;;;;6.40;1.08;;;7.60;99.90;;;;;;5067241;28;20093;-69
2021/10/13 02:12:31;;;;;;;11.35;1.55;;;7.60;99.90;;;;;;5090866;28;20062;-69
2021/10/13 02:15:00;;;;;;;6.78;1.30;;;7.60;99.90;;;;;;5101971;28;20047;-69
2021/10/13 02:17:25;;;;;;;9.32;1.33;;;7.70;99.90;;;;;;5095453;28;20036;-68
2021/10/13 02:19:52;;;;;;;11.27;1.77;;;7.70;99.90;;;;;;5065433;28;20071;-68
2021/10/13 02:22:18;;;;;;;5.93;1.00;;;7.70;99.90;;;;;;5088886;28;20059;-68
2021/10/13 02:24:49;;;;;;;11.32;1.48;;;7.80;99.90;;;;;;5061554;28;21038;-68
2021/10/13 02:27:39;;;;;;;6.03;1.67;;;7.80;99.90;;;;;;5065285;28;20115;-68
2021/10/13 02:30:07;;;;;;;6.95;1.30;;;7.90;99.90;;;;;;5092197;28;20564;-68
2021/10/13 02:32:33;;;;;;;8.45;1.20;;;7.90;99.90;;;;;;5084296;28;20071;-68
2021/10/13 02:34:59;;;;;;;7.60;1.73;;;7.90;99.90;;;;;;5063623;28;20091;-69
2021/10/13 02:37:25;;;;;;;4.95;1.02;;;7.90;99.90;;;;;;5090867;28;20080;-68
2021/10/13 02:39:51;;;;;;;7.50;1.13;;;8.00;99.90;;;;;;5064066;28;20090;-68
2021/10/13 02:42:17;;;;;;;6.03;1.85;;;8.00;99.90;;;;;;5083359;28;20036;-69
2021/10/13 02:44:43;;;;;;;10.30;1.65;;;8.00;99.90;;;;;;5080972;28;20043;-69
2021/10/13 02:47:25;;;;;;;8.15;1.70;;;8.00;99.90;;;;;;5099860;28;20456;-68
2021/10/13 02:50:12;;;;;;;6.22;1.20;;;8.10;99.90;;;;;;5091228;28;20400;-68
2021/10/13 02:53:07;;;;;;;6.63;1.33;;;8.00;99.90;;;;;;5067669;28;20044;-68
2021/10/13 02:55:42;;;;;;;7.70;1.07;;;8.00;99.90;;;;;;5059592;28;20052;-69
2021/10/13 02:58:22;;;;;;;4.68;1.42;;;8.10;99.90;;;;;;5093317;28;20083;-68
2021/10/13 03:00:51;;;;;;;9.10;1.38;;;8.00;99.90;;;;;;5096888;28;20044;-68
2021/10/13 03:03:29;;;;;;;7.20;1.27;;;8.00;99.90;;;;;;5062318;28;20036;-68
2021/10/13 03:05:58;;;;;;;7.60;1.20;;;8.00;99.90;;;;;;5080800;28;20119;-69
2021/10/13 03:08:26;;;;;;;7.22;1.52;;;8.00;99.90;;;;;;5086243;28;20399;-69
2021/10/13 03:10:55;;;;;;;6.95;1.40;;;8.00;99.90;;;;;;5093920;28;20499;-69
2021/10/13 03:13:28;;;;;;;9.13;1.55;;;7.90;99.90;;;;;;5082934;28;20047;-69
2021/10/13 03:15:56;;;;;;;4.65;1.30;;;7.90;99.90;;;;;;5073544;28;20478;-69
2021/10/13 03:18:22;;;;;;;7.55;1.23;;;7.90;99.90;;;;;;5098635;28;20091;-69
2021/10/13 03:20:50;;;;;;;6.25;1.17;;;7.90;99.90;;;;;;5076580;28;20102;-69
2021/10/13 03:23:17;;;;;;;8.38;1.00;;;7.80;99.90;;;;;;5065322;28;20500;-69
2021/10/13 03:25:42;;;;;;;6.07;0.95;;;7.80;99.90;;;;;;5078424;28;20423;-69
2021/10/13 03:28:08;;;;;;;6.03;1.02;;;7.90;99.90;;;;;;5066794;28;20061;-69
2021/10/13 03:30:34;;;;;;;5.60;1.23;;;7.90;99.90;;;;;;5083436;28;20051;-69
2021/10/13 03:32:59;;;;;;;4.10;0.80;;;8.00;99.90;;;;;;5085604;28;20028;-69
2021/10/13 03:35:27;;;;;;;8.35;0.98;;;8.00;99.90;;;;;;5079727;28;20124;-69
2021/10/13 03:37:56;;;;;;;8.70;1.00;;;8.00;99.90;;;;;;5071547;28;20044;-69
2021/10/13 03:40:24;;;;;;;10.32;1.50;;;8.00;99.90;;;;;;5050820;28;20036;-69
2021/10/13 03:42:50;;;;;;;5.38;0.90;;;8.00;99.90;;;;;;5074494;28;20044;-69
2021/10/13 03:45:17;;;;;;;6.97;0.88;;;8.10;99.90;;;;;;5101908;28;20043;-69
2021/10/13 03:47:44;;;;;;;8.25;0.82;;;8.10;99.90;;;;;;5074503;28;20075;-69
2021/10/13 03:50:10;;;;;;;5.25;0.88;;;8.10;99.90;;;;;;5062833;28;20036;-69
2021/10/13 03:52:38;;;;;;;4.40;0.60;;;8.10;99.90;;;;;;5064114;28;20047;-69
2021/10/13 03:55:06;;;;;;;6.88;0.80;;;8.10;99.90;;;;;;5102485;28;20048;-69
2021/10/13 03:57:31;;;;;;;5.30;1.00;;;8.10;99.90;;;;;;5096410;28;20482;-69
2021/10/13 03:59:57;;;;;;;4.07;0.60;;;8.10;99.90;;;;;;5067850;28;20052;-69
2021/10/13 04:02:23;;;;;;;5.53;0.80;;;8.10;99.90;;;;;;5087807;28;20489;-69
2021/10/13 04:04:49;;;;;;;6.63;0.90;;;8.10;99.90;;;;;;5063702;28;20041;-69
2021/10/13 04:07:14;;;;;;;8.18;1.20;;;8.00;99.90;;;;;;5056553;28;20032;-69
2021/10/13 04:09:40;;;;;;;7.20;1.00;;;8.00;99.90;;;;;;5095223;28;20036;-69
2021/10/13 04:12:06;;;;;;;6.07;0.90;;;8.00;99.90;;;;;;5081918;28;20121;-69
2021/10/13 04:14:32;;;;;;;6.63;1.15;;;8.10;99.90;;;;;;5098505;28;20047;-69
2021/10/13 04:16:58;;;;;;;4.28;0.90;;;8.20;99.90;;;;;;5099776;27;20036;-69
2021/10/13 04:19:23;;;;;;;6.30;0.77;;;8.20;99.90;;;;;;5065545;28;20044;-69
2021/10/13 04:21:50;;;;;;;9.55;0.80;;;8.30;99.90;;;;;;5083472;28;20052;-68
2021/10/13 04:24:16;;;;;;;6.03;0.60;;;8.30;99.90;;;;;;5059898;28;20197;-68
2021/10/13 04:26:41;;;;;;;6.68;1.17;;;8.30;99.90;;;;;;5067695;28;20127;-69
2021/10/13 04:29:07;;;;;;;7.60;0.90;;;8.30;99.90;;;;;;5063762;28;20396;-69
2021/10/13 04:31:33;;;;;;;40.13;35.08;;;8.50;99.90;;;;;;5068484;28;20047;-69
2021/10/13 04:33:58;;;;;;;71.72;52.83;;;8.40;99.90;;;;;;5068330;28;20171;-69
2021/10/13 04:36:24;;;;;;;6.53;3.60;;;8.50;99.90;;;;;;5067789;28;20044;-69
2021/10/13 04:38:50;;;;;;;9.57;1.10;;;8.50;99.90;;;;;;5060865;28;20036;-69
2021/10/13 04:41:18;;;;;;;7.28;1.08;;;8.60;99.90;;;;;;5062967;28;20051;-69
2021/10/13 04:43:44;;;;;;;5.38;0.73;;;8.70;99.90;;;;;;5081686;28;20050;-70
2021/10/13 04:46:09;;;;;;;14.27;0.88;;;8.70;99.90;;;;;;5086064;28;20395;-69
2021/10/13 04:48:35;;;;;;;7.40;0.77;;;8.80;99.90;;;;;;5047516;28;20056;-69
2021/10/13 04:51:01;;;;;;;4.20;0.73;;;8.80;99.90;;;;;;5069135;28;20056;-70
2021/10/13 04:53:26;;;;;;;5.70;1.00;;;8.80;99.90;;;;;;5079340;28;20040;-69
2021/10/13 04:55:52;;;;;;;6.15;0.85;;;8.80;99.90;;;;;;5079517;28;20111;-69
2021/10/13 04:58:18;;;;;;;5.93;0.60;;;8.90;99.90;;;;;;5068800;28;20032;-69
2021/10/13 05:00:44;;;;;;;5.93;0.60;;;8.90;99.90;;;;;;5046486;28;20054;-70
2021/10/13 05:03:09;;;;;;;2.63;0.55;;;8.90;99.90;;;;;;5067814;28;20032;-70
2021/10/13 05:05:36;;;;;;;4.80;0.52;;;9.00;99.90;;;;;;5092371;28;20499;-70
2021/10/13 05:08:02;;;;;;;7.88;1.08;;;9.10;99.90;;;;;;5097333;28;20100;-69
2021/10/13 05:10:28;;;;;;;2.20;0.40;;;9.20;99.90;;;;;;5057053;28;20040;-69
2021/10/13 05:12:54;;;;;;;5.15;0.43;;;9.20;99.90;;;;;;5094403;28;20118;-69
2021/10/13 05:15:19;;;;;;;4.07;0.50;;;9.30;99.90;;;;;;5094151;28;20044;-69
2021/10/13 05:17:45;;;;;;;2.25;0.50;;;9.30;99.90;;;;;;5083955;28;20039;-69
2021/10/13 05:20:11;;;;;;;2.33;0.47;;;9.40;99.90;;;;;;5059879;28;20072;-68
2021/10/13 05:22:37;;;;;;;8.90;0.88;;;9.30;99.90;;;;;;5100207;28;20047;-68
2021/10/13 05:25:04;;;;;;;3.83;0.60;;;9.40;99.90;;;;;;5094323;28;20043;-68
2021/10/13 05:27:29;;;;;;;3.30;0.50;;;9.40;99.90;;;;;;5088220;28;20036;-68
2021/10/13 05:29:55;;;;;;;4.30;0.60;;;9.40;99.90;;;;;;5060431;28;20067;-68
2021/10/13 05:32:21;;;;;;;3.10;0.50;;;9.40;99.90;;;;;;5098460;28;20040;-68
2021/10/13 05:34:46;;;;;;;2.78;0.47;;;9.40;99.90;;;;;;5083169;28;20040;-68
2021/10/13 05:37:12;;;;;;;5.07;0.73;;;9.40;99.90;;;;;;5054673;28;20497;-68
2021/10/13 05:39:38;;;;;;;10.02;1.08;;;9.40;99.90;;;;;;5063077;28;20044;-68
2021/10/13 05:42:04;;;;;;;6.45;0.70;;;9.40;99.90;;;;;;5056923;28;20048;-68
2021/10/13 05:44:30;;;;;;;5.43;0.93;;;9.40;99.90;;;;;;5090088;28;20491;-68
2021/10/13 05:46:56;;;;;;;5.25;0.75;;;9.30;99.90;;;;;;5091168;28;20051;-68
2021/10/13 05:49:21;;;;;;;3.97;0.68;;;9.30;99.90;;;;;;5078428;28;20049;-68
2021/10/13 05:51:47;;;;;;;5.68;0.77;;;9.30;99.90;;;;;;5080077;28;20419;-69
2021/10/13 05:54:13;;;;;;;9.43;0.75;;;9.30;99.90;;;;;;5082273;28;20052;-69
2021/10/13 05:56:39;;;;;;;4.30;0.77;;;9.30;99.90;;;;;;5098429;28;20043;-70
2021/10/13 05:59:04;;;;;;;5.13;0.93;;;9.20;99.90;;;;;;5065945;28;20598;-69
2021/10/13 06:01:30;;;;;;;6.10;1.25;;;9.20;99.90;;;;;;5066630;28;20044;-69
2021/10/13 06:03:56;;;;;;;8.73;0.80;;;9.20;99.90;;;;;;5086676;28;20044;-69
2021/10/13 06:06:22;;;;;;;4.65;0.45;;;9.20;99.90;;;;;;5092728;28;20566;-69
2021/10/13 06:08:47;;;;;;;7.32;1.00;;;9.20;99.90;;;;;;5082368;28;20505;-69
2021/10/13 06:11:14;;;;;;;5.45;0.80;;;9.20;99.90;;;;;;5060343;28;20062;-69
2021/10/13 06:13:40;;;;;;;5.65;0.60;;;9.20;99.90;;;;;;5059251;28;20045;-69
2021/10/13 06:16:12;;;;;;;11.13;0.73;;;9.20;99.90;;;;;;5080329;28;20416;-69
2021/10/13 06:18:38;;;;;;;7.25;0.70;;;9.20;99.90;;;;;;5038952;28;20047;-69
2021/10/13 06:21:04;;;;;;;6.80;0.75;;;9.30;99.90;;;;;;5055824;28;20041;-69
2021/10/13 06:23:30;;;;;;;8.63;0.90;;;9.30;99.90;;;;;;5055944;28;20101;-68
2021/10/13 06:25:56;;;;;;;3.65;0.60;;;9.30;99.90;;;;;;5060224;28;20242;-68
2021/10/13 06:28:21;;;;;;;8.88;1.40;;;9.30;99.90;;;;;;5072483;28;20044;-68
2021/10/13 06:30:47;;;;;;;5.28;0.70;;;9.30;99.90;;;;;;5058877;28;20040;-68
2021/10/13 06:33:13;;;;;;;6.97;0.80;;;9.30;99.90;;;;;;5085740;28;20091;-68
2021/10/13 06:35:39;;;;;;;3.03;0.70;;;9.30;99.90;;;;;;5077882;28;20097;-68
2021/10/13 06:38:04;;;;;;;4.03;0.80;;;9.30;99.90;;;;;;5047315;28;20047;-69
2021/10/13 06:40:30;;;;;;;4.45;0.55;;;9.30;99.90;;;;;;5087994;28;20072;-69
2021/10/13 06:42:56;;;;;;;4.78;0.60;;;9.30;99.90;;;;;;5074911;28;20130;-69
2021/10/13 06:45:22;;;;;;;5.43;0.80;;;9.40;99.90;;;;;;5092961;28;20094;-69
2021/10/13 06:47:48;;;;;;;5.05;0.80;;;9.30;99.90;;;;;;5074384;28;20041;-69
2021/10/13 06:50:13;;;;;;;7.00;1.08;;;9.40;99.90;;;;;;5085441;28;20035;-69
2021/10/13 06:52:39;;;;;;;7.00;0.80;;;9.40;99.90;;;;;;5089296;28;20094;-69
2021/10/13 06:55:06;;;;;;;3.65;0.80;;;9.40;99.90;;;;;;5065513;28;20048;-69
2021/10/13 06:57:32;;;;;;;7.05;0.70;;;9.40;99.90;;;;;;5082378;28;20051;-69
2021/10/13 06:59:58;;;;;;;6.60;1.13;;;9.40;99.90;;;;;;5061357;28;20052;-69
2021/10/13 07:02:24;;;;;;;5.45;0.70;;;9.40;99.90;;;;;;5086282;28;20524;-68
2021/10/13 07:04:49;;;;;;;5.78;0.80;;;9.50;99.90;;;;;;5058900;28;20569;-68
2021/10/13 07:07:15;;;;;;;5.90;0.90;;;9.50;99.90;;;;;;5086108;28;20040;-69
2021/10/13 07:09:41;;;;;;;4.15;0.90;;;9.50;99.90;;;;;;5074771;28;20438;-69
2021/10/13 07:12:07;;;;;;;8.27;0.90;;;9.50;99.90;;;;;;5076627;28;20101;-69
2021/10/13 07:14:32;;;;;;;3.88;0.63;;;9.60;99.90;;;;;;5094586;28;20048;-69
2021/10/13 07:16:58;;;;;;;9.57;1.10;;;9.60;99.90;;;;;;5085122;28;20445;-69
2021/10/13 07:19:24;;;;;;;6.68;0.70;;;9.70;99.90;;;;;;5081370;28;20787;-69
2021/10/13 07:21:49;;;;;;;5.93;0.68;;;10.10;99.90;;;;;;5059828;28;20052;-69
2021/10/13 07:24:15;;;;;;;4.45;0.60;;;10.70;99.90;;;;;;5065030;28;20044;-69
2021/10/13 07:26:44;;;;;;;6.18;1.20;;;11.30;99.90;;;;;;5065006;28;20044;-69
2021/10/13 07:29:10;;;;;;;5.18;0.70;;;12.00;99.90;;;;;;5094016;28;20492;-69
2021/10/13 07:31:36;;;;;;;5.00;0.47;;;12.70;99.90;;;;;;5064429;28;20090;-69
2021/10/13 07:34:02;;;;;;;4.78;0.63;;;13.50;99.90;;;;;;5085442;28;20043;-69
2021/10/13 07:36:28;;;;;;;4.70;0.65;;;14.00;99.90;;;;;;5080998;28;20112;-69
2021/10/13 07:38:54;;;;;;;5.00;0.75;;;14.60;99.90;;;;;;5082552;28;20052;-69
2021/10/13 07:41:20;;;;;;;2.70;0.52;;;14.90;99.90;;;;;;5053898;28;20056;-69
2021/10/13 07:43:46;;;;;;;4.38;0.50;;;14.90;99.90;;;;;;5060912;28;20201;-69
2021/10/13 07:46:13;;;;;;;4.43;0.80;;;14.80;99.90;;;;;;5072491;28;20035;-69
2021/10/13 07:48:39;;;;;;;28.42;20.98;;;14.80;99.90;;;;;;5089380;28;20479;-69
2021/10/13 07:51:05;;;;;;;6.32;2.08;;;15.20;99.90;;;;;;5062966;28;20052;-69
2021/10/13 07:53:31;;;;;;;3.80;0.60;;;15.80;99.90;;;;;;5062720;28;20056;-69
2021/10/13 07:55:57;;;;;;;4.18;0.50;;;16.40;99.90;;;;;;5082150;28;20552;-69
2021/10/13 07:58:22;;;;;;;3.85;0.50;;;16.90;97.60;;;;;;5087901;28;20055;-69
2021/10/13 08:00:48;;;;;;;4.53;0.50;;;17.40;96.20;;;;;;5055810;28;20044;-69
2021/10/13 08:03:14;;;;;;;3.05;0.45;;;17.80;94.10;;;;;;5058165;28;20125;-70
2021/10/13 08:05:40;;;;;;;3.28;0.30;;;18.00;91.90;;;;;;5069754;28;20036;-69
2021/10/13 08:08:06;;;;;;;3.33;0.47;;;18.30;90.90;;;;;;5079857;28;20040;-69
2021/10/13 08:10:32;;;;;;;2.97;0.40;;;18.20;87.10;;;;;;5061116;28;20394;-69
2021/10/13 08:12:59;;;;;;;4.28;0.55;;;18.20;87.40;;;;;;5079233;28;20048;-70
2021/10/13 08:15:26;;;;;;;2.28;0.30;;;18.40;86.20;;;;;;5061468;28;20113;-70
2021/10/13 08:17:51;;;;;;;2.65;0.40;;;18.60;85.70;;;;;;5079670;28;20047;-70
2021/10/13 08:20:18;;;;;;;3.10;0.30;;;18.50;86.20;;;;;;5084373;28;20507;-70
2021/10/13 08:22:46;;;;;;;2.15;0.50;;;18.20;86.70;;;;;;5057730;28;20120;-70
2021/10/13 08:25:12;;;;;;;4.32;0.40;;;18.00;86.50;;;;;;5078637;28;20045;-70
2021/10/13 08:27:38;;;;;;;4.63;0.47;;;17.70;85.00;;;;;;5068727;28;20051;-70
2021/10/13 08:30:06;;;;;;;3.83;0.32;;;17.80;85.20;;;;;;5042162;28;20131;-71
2021/10/13 08:32:31;;;;;;;4.07;0.65;;;17.90;83.10;;;;;;5073125;28;20129;-70
2021/10/13 08:34:57;;;;;;;2.10;0.30;;;18.20;84.00;;;;;;5079952;28;20499;-70
2021/10/13 08:37:23;;;;;;;3.92;0.57;;;18.70;83.60;;;;;;5057278;28;20040;-71
2021/10/13 08:39:49;;;;;;;3.70;0.55;;;19.10;82.10;;;;;;5080833;28;20065;-70
2021/10/13 08:42:24;;;;;;;4.10;0.57;;;19.40;79.40;;;;;;5067981;28;20048;-70
2021/10/13 08:44:51;;;;;;;3.75;0.47;;;19.30;75.90;;;;;;5060504;28;20062;-70
2021/10/13 08:47:17;;;;;;;5.63;0.68;;;19.00;76.90;;;;;;5060521;28;20065;-70
2021/10/13 08:49:43;;;;;;;6.35;0.70;;;18.70;76.60;;;;;;5073408;28;20040;-71
2021/10/13 08:52:13;;;;;;;2.95;0.55;;;18.90;78.40;;;;;;5102083;28;20444;-70
2021/10/13 08:54:39;;;;;;;3.15;0.55;;;18.70;78.20;;;;;;5073225;28;20044;-70
2021/10/13 08:57:19;;;;;;;3.88;0.63;;;18.00;78.20;;;;;;5057616;28;20492;-70
2021/10/13 08:59:48;;;;;;;3.97;0.50;;;17.30;77.30;;;;;;5049541;28;20048;-70
2021/10/13 09:02:15;;;;;;;4.32;0.68;;;16.80;80.50;;;;;;5076452;28;20048;-70
2021/10/13 09:05:07;;;;;;;5.07;1.00;;;16.90;83.20;;;;;;5089949;28;20141;-70
2021/10/13 09:07:33;;;;;;;4.68;0.63;;;17.30;83.70;;;;;;5078228;28;20395;-70
2021/10/13 09:09:59;;;;;;;5.28;0.63;;;17.10;81.70;;;;;;5067295;28;20046;-70
2021/10/13 09:12:36;;;;;;;3.38;0.77;;;17.40;82.30;;;;;;5103978;27;20136;-70
2021/10/13 09:15:04;;;;;;;3.75;0.47;;;17.20;82.40;;;;;;5071930;28;20071;-70
2021/10/13 09:17:30;;;;;;;3.67;0.63;;;16.80;83.00;;;;;;5091070;28;20048;-70
2021/10/13 09:19:56;;;;;;;5.28;0.73;;;16.30;83.40;;;;;;5094073;28;20059;-70
2021/10/13 09:22:21;;;;;;;7.97;4.00;;;15.90;85.00;;;;;;5059965;28;20040;-70
2021/10/13 09:24:50;;;;;;;3.83;0.50;;;15.70;86.90;;;;;;5057136;28;20036;-69
2021/10/13 09:27:26;;;;;;;4.18;0.52;;;16.00;87.70;;;;;;5070661;28;20051;-70
2021/10/13 09:30:02;;;;;;;4.75;0.73;;;16.90;87.60;;;;;;5086171;28;20135;-70
2021/10/13 09:32:28;;;;;;;6.55;0.88;;;17.70;85.70;;;;;;5103913;27;20087;-70
2021/10/13 09:34:55;;;;;;;3.50;0.60;;;18.10;83.10;;;;;;5063477;28;20040;-70
2021/10/13 09:37:40;;;;;;;5.68;0.70;;;18.80;82.20;;;;;;5078043;28;20040;-70
2021/10/13 09:40:06;;;;;;;2.40;0.43;;;19.50;79.50;;;;;;5071915;28;20052;-70
2021/10/13 09:42:36;;;;;;;2.03;0.40;;;19.40;75.50;;;;;;5066998;28;20048;-70
2021/10/13 09:45:02;;;;;;;4.43;0.60;;;19.40;75.00;;;;;;5061587;28;20060;-70
2021/10/13 09:47:35;;;;;;;3.65;0.73;;;19.40;74.70;;;;;;5073916;28;20060;-70
2021/10/13 09:50:10;;;;;;;4.60;0.40;;;19.20;75.10;;;;;;5051205;28;20048;-70
2021/10/13 09:52:36;;;;;;;3.53;0.57;;;18.90;73.90;;;;;;5080012;28;20414;-70
2021/10/13 09:55:09;;;;;;;3.10;0.40;;;18.50;76.00;;;;;;5076370;28;20081;-70
2021/10/13 09:57:45;;;;;;;3.63;0.70;;;18.30;76.90;;;;;;5091757;28;20058;-70
2021/10/13 10:00:12;;;;;;;3.80;0.40;;;18.30;76.10;;;;;;5084643;28;20051;-70
2021/10/13 10:02:40;;;;;;;4.53;0.57;;;18.30;78.20;;;;;;5095971;28;20139;-70
2021/10/13 10:05:15;;;;;;;2.85;0.50;;;18.20;78.60;;;;;;5095931;28;20048;-70
2021/10/13 10:07:45;;;;;;;3.72;0.50;;;17.90;76.70;;;;;;5078537;28;20071;-70
2021/10/13 10:10:16;;;;;;;2.28;0.30;;;17.40;77.00;;;;;;5105864;28;20056;-70
2021/10/13 10:13:09;;;;;;;1.92;0.30;;;16.60;77.50;;;;;;5096834;28;20048;-70
2021/10/13 10:15:49;;;;;;;2.80;0.38;;;16.10;79.10;;;;;;5104708;28;20078;-70
2021/10/13 10:18:31;;;;;;;4.43;0.38;;;15.70;82.20;;;;;;5081698;28;20115;-70
2021/10/13 10:21:24;;;;;;;3.10;0.45;;;15.50;83.50;;;;;;5068671;28;20054;-70
2021/10/13 10:23:52;;;;;;;3.95;0.50;;;15.40;83.80;;;;;;5080177;28;20468;-70
2021/10/13 10:26:24;;;;;;;2.10;0.20;;;15.50;84.80;;;;;;5064692;28;20045;-70
2021/10/13 10:28:50;;;;;;;2.90;0.30;;;16.20;82.10;;;;;;5070886;28;20040;-69
2021/10/13 10:31:28;;;;;;;2.83;0.40;;;16.90;79.70;;;;;;5070761;28;20141;-69
2021/10/13 10:34:02;;;;;;;2.13;0.35;;;17.40;78.60;;;;;;5080567;28;20036;-70
2021/10/13 10:36:48;;;;;;;3.80;0.40;;;17.60;77.90;;;;;;5083353;28;20044;-70
2021/10/13 10:39:21;;;;;;;3.00;0.50;;;18.10;76.30;;;;;;5076672;28;20048;-70
2021/10/13 10:41:55;;;;;;;1.55;0.22;;;18.40;74.40;;;;;;5074308;28;20062;-70
2021/10/13 10:44:29;;;;;;;2.67;0.45;;;18.50;73.40;;;;;;5072650;28;20052;-70
2021/10/13 10:47:16;;;;;;;2.28;0.30;;;19.20;74.10;;;;;;5090897;28;20044;-70
2021/10/13 10:49:51;;;;;;;2.75;0.30;;;18.90;69.90;;;;;;5093806;28;20060;-69
2021/10/13 10:52:25;;;;;;;3.45;0.50;;;17.90;70.50;;;;;;5078390;28;20112;-69
2021/10/13 10:55:08;;;;;;;1.58;0.30;;;17.20;73.50;;;;;;5085490;28;20068;-69
2021/10/13 10:57:45;;;;;;;4.18;0.50;;;16.40;75.30;;;;;;5072229;28;20415;-69
2021/10/13 11:00:37;;;;;;;2.97;0.30;;;15.80;79.40;;;;;;5084352;28;20049;-69
2021/10/13 11:03:21;;;;;;;4.75;0.30;;;15.40;81.60;;;;;;5065865;28;20054;-69
2021/10/13 11:05:48;;;;;;;3.92;0.55;;;15.10;84.50;;;;;;5065205;28;20036;-69
2021/10/13 11:08:14;;;;;;;4.47;0.30;;;14.80;84.80;;;;;;5089247;28;20044;-69
2021/10/13 11:10:41;;;;;;;2.65;0.30;;;14.70;85.80;;;;;;5083342;28;20115;-69
2021/10/13 11:13:07;;;;;;;1.95;0.20;;;14.50;86.60;;;;;;5073098;28;20048;-69
2021/10/13 11:15:36;;;;;;;1.50;0.20;;;14.30;89.10;;;;;;5084608;28;20493;-69
2021/10/13 11:18:16;;;;;;;0.80;0.10;;;14.00;91.10;;;;;;5079453;28;20040;-69
2021/10/13 11:20:43;;;;;;;0.85;0.43;;;13.70;93.30;;;;;;5060750;28;20384;-69
2021/10/13 11:23:11;;;;;;;1.13;0.13;;;13.40;94.80;;;;;;5064122;28;20127;-69
2021/10/13 11:25:38;;;;;;;1.30;0.20;;;13.20;96.90;;;;;;5040797;28;20078;-69
2021/10/13 11:28:08;;;;;;;1.88;0.30;;;13.10;98.60;;;;;;5083658;28;20032;-69
2021/10/13 11:30:42;;;;;;;3.67;0.25;;;13.10;99.40;;;;;;5085508;28;20055;-69
2021/10/13 11:33:13;;;;;;;2.08;0.20;;;13.10;99.30;;;;;;5080681;28;20048;-69
2021/10/13 11:35:39;;;;;;;2.00;0.20;;;13.10;99.40;;;;;;5091345;28;20052;-69
2021/10/13 11:38:06;;;;;;;2.30;0.20;;;13.20;98.70;;;;;;5086955;28;20075;-69
2021/10/13 11:40:33;;;;;;;2.05;0.30;;;13.20;99.00;;;;;;5079547;28;20131;-69
2021/10/13 11:43:06;;;;;;;4.05;0.38;;;13.40;98.40;;;;;;5085153;28;20092;-69
2021/10/13 11:45:31;;;;;;;3.70;0.50;;;13.50;97.80;;;;;;5089878;28;20051;-69
2021/10/13 11:48:02;;;;;;;1.02;0.20;;;13.50;97.10;;;;;;5103751;28;20043;-69
2021/10/13 11:50:33;;;;;;;2.63;0.35;;;13.50;96.50;;;;;;5095146;28;20133;-69
2021/10/13 11:53:00;;;;;;;3.90;0.55;;;13.50;96.40;;;;;;5076657;28;20087;-69
2021/10/13 11:55:29;;;;;;;2.30;0.40;;;13.60;96.90;;;;;;5040208;28;20047;-69
2021/10/13 11:57:57;;;;;;;2.42;0.20;;;13.80;97.60;;;;;;5056681;28;20082;-69
2021/10/13 12:00:31;;;;;;;3.10;0.22;;;13.90;96.40;;;;;;5061408;28;20052;-67
2021/10/13 12:03:08;;;;;;;2.73;0.20;;;14.00;96.50;;;;;;5091291;27;20178;-67
2021/10/13 12:05:40;;;;;;;3.38;0.43;;;14.20;96.30;;;;;;5087428;28;20093;-68
2021/10/13 12:08:13;;;;;;;2.10;0.40;;;14.30;95.80;;;;;;5087611;28;20504;-68
2021/10/13 12:10:42;;;;;;;2.47;0.22;;;14.40;94.90;;;;;;5073878;28;20715;-68
2021/10/13 12:13:14;;;;;;;2.80;0.20;;;14.40;94.50;;;;;;5084398;28;20411;-68
2021/10/13 12:15:44;;;;;;;2.75;0.30;;;14.50;94.20;;;;;;5081860;28;20177;-68
2021/10/13 12:18:22;;;;;;;1.90;0.20;;;14.40;94.00;;;;;;5076119;28;20547;-68
2021/10/13 12:20:51;;;;;;;3.95;0.50;;;14.50;93.80;;;;;;5055384;28;20127;-68
2021/10/13 12:23:21;;;;;;;1.75;0.43;;;14.60;93.80;;;;;;5086001;28;20040;-68
2021/10/13 12:25:47;;;;;;;4.03;0.52;;;14.70;93.10;;;;;;5086592;28;20035;-68
2021/10/13 12:28:31;;;;;;;6.85;0.68;;;14.70;93.30;;;;;;5084139;28;20040;-68
2021/10/13 12:31:05;;;;;;;3.97;0.97;;;14.80;93.20;;;;;;5071253;28;20055;-68
2021/10/13 12:33:40;;;;;;;3.85;0.40;;;14.80;93.30;;;;;;5065361;28;20416;-68
2021/10/13 12:36:10;;;;;;;;;;;14.80;92.70;;;;;;5086181;28;20488;-68
2021/10/13 12:38:54;;;;;;;4.93;0.50;;;14.70;91.80;;;;;;5075769;28;19916;-68
2021/10/13 12:41:20;;;;;;;2.80;0.38;;;14.80;92.00;;;;;;5075467;28;20428;-66
2021/10/13 12:43:48;;;;;;;5.22;0.60;;;14.80;92.40;;;;;;5081478;28;20031;-66
2021/10/13 12:46:33;;;;;;;5.40;0.63;;;14.90;91.80;;;;;;5064559;28;20044;-66
2021/10/13 12:49:13;;;;;;;3.38;0.63;;;14.80;91.50;;;;;;5055014;28;20028;-66
2021/10/13 12:51:58;;;;;;;6.88;0.65;;;14.80;91.40;;;;;;5074341;28;20063;-66
2021/10/13 12:54:28;;;;;;;2.55;0.40;;;14.80;92.10;;;;;;5086337;28;20051;-66
2021/10/13 12:56:55;;;;;;;7.47;0.45;;;14.80;92.40;;;;;;5068653;28;20048;-66
2021/10/13 12:59:21;;;;;;;7.68;0.65;;;14.70;92.40;;;;;;5046106;28;20047;-66
2021/10/13 13:01:47;;;;;;;6.65;0.70;;;14.70;92.30;;;;;;5064463;28;20178;-66
2021/10/13 13:04:12;;;;;;;5.22;0.60;;;14.60;92.30;;;;;;5080153;28;20135;-66